createdAt,value
2023-03-27T00:00:30.372Z,84.03
2023-03-27T00:01:11.072Z,83.92
2023-03-27T00:01:51.276Z,83.96
2023-03-27T00:02:32.251Z,83.95
2023-03-27T00:03:12.376Z,84.19
2023-03-27T00:03:56.109Z,84.69
2023-03-27T00:04:36.216Z,84.11
2023-03-27T00:05:17.129Z,84.58
2023-03-27T00:06:16.526Z,84.36
2023-03-27T00:06:57.125Z,84.46
2023-03-27T00:07:37.297Z,84.43
2023-03-27T00:08:18.092Z,84.46
2023-03-27T00:08:58.303Z,84.08
2023-03-27T00:09:39.105Z,84.07
2023-03-27T00:10:26.222Z,83.78
2023-03-27T00:11:21.101Z,83.80
2023-03-27T00:12:15.118Z,83.86
2023-03-27T00:13:10.115Z,83.60
2023-03-27T00:14:04.094Z,83.35
2023-03-27T00:14:59.082Z,83.48
2023-03-27T00:15:46.106Z,83.45
2023-03-27T00:16:21.526Z,83.92
2023-03-27T00:17:10.084Z,84.29
2023-03-27T00:17:44.305Z,85.23
2023-03-27T00:18:33.066Z,86.09
2023-03-27T00:19:14.165Z,86.56
2023-03-27T00:19:55.086Z,86.13
2023-03-27T00:20:37.356Z,86.51
2023-03-27T00:21:17.130Z,86.33
2023-03-27T00:21:57.178Z,86.36
2023-03-27T00:22:44.107Z,86.66
2023-03-27T00:23:25.155Z,87.01
2023-03-27T00:24:13.082Z,87.24
2023-03-27T00:24:47.174Z,86.93
2023-03-27T00:25:36.063Z,87.11
2023-03-27T00:26:11.812Z,86.96
2023-03-27T00:26:52.089Z,87.13
2023-03-27T00:27:32.168Z,87.10
2023-03-27T00:28:12.080Z,86.87
2023-03-27T00:28:53.493Z,87.00
2023-03-27T00:29:34.082Z,87.06
2023-03-27T00:30:15.635Z,87.26
2023-03-27T00:30:56.274Z,87.49
2023-03-27T00:31:37.196Z,87.08
2023-03-27T00:32:17.130Z,87.47
2023-03-27T00:32:57.392Z,87.32
2023-03-27T00:33:38.083Z,87.24
2023-03-27T00:34:18.173Z,87.04
2023-03-27T00:34:58.078Z,86.90
2023-03-27T00:35:38.157Z,87.22
2023-03-27T00:36:19.058Z,87.02
2023-03-27T00:36:59.192Z,86.67
2023-03-27T00:37:39.087Z,87.09
2023-03-27T00:38:20.842Z,86.91
2023-03-27T00:39:02.060Z,87.03
2023-03-27T00:39:42.546Z,86.79
2023-03-27T00:40:24.073Z,85.64
2023-03-27T00:41:04.850Z,86.56
2023-03-27T00:41:45.077Z,86.10
2023-03-27T00:42:27.208Z,86.45
2023-03-27T00:43:08.085Z,86.82
2023-03-27T00:43:50.147Z,86.66
2023-03-27T00:44:39.676Z,86.68
2023-03-27T00:45:24.162Z,86.38
2023-03-27T00:46:21.121Z,86.57
2023-03-27T00:47:03.225Z,86.41
2023-03-27T00:47:45.084Z,85.89
2023-03-27T00:48:27.112Z,85.71
2023-03-27T00:49:03.180Z,86.26
2023-03-27T00:49:50.039Z,86.13
2023-03-27T00:50:33.137Z,85.63
2023-03-27T00:51:21.065Z,85.63
2023-03-27T00:51:57.153Z,85.71
2023-03-27T00:52:50.060Z,85.94
2023-03-27T00:53:38.083Z,86.07
2023-03-27T00:54:37.073Z,87.04
2023-03-27T00:55:32.060Z,87.29
2023-03-27T00:56:28.071Z,87.65
2023-03-27T00:57:29.054Z,87.64
2023-03-27T00:58:47.101Z,87.98
2023-03-27T00:59:47.045Z,87.79
2023-03-27T01:00:42.067Z,88.48
2023-03-27T01:01:38.095Z,89.66
2023-03-27T01:02:33.114Z,89.46
2023-03-27T01:03:27.130Z,89.80
2023-03-27T01:04:10.042Z,89.96
2023-03-27T01:04:50.124Z,90.65
2023-03-27T01:05:30.042Z,91.49
2023-03-27T01:06:13.838Z,92.56
2023-03-27T01:06:57.067Z,93.13
2023-03-27T01:07:38.156Z,93.37
2023-03-27T01:08:19.047Z,95.55
2023-03-27T01:08:59.258Z,95.67
2023-03-27T01:09:40.043Z,95.58
2023-03-27T01:10:21.322Z,96.75
2023-03-27T01:11:04.027Z,97.18
2023-03-27T01:12:14.159Z,97.79
2023-03-27T01:13:27.079Z,99.00
2023-03-27T01:14:15.546Z,98.21
2023-03-27T01:15:22.060Z,99.20
2023-03-27T01:16:33.114Z,98.27
2023-03-27T01:17:44.059Z,100.00
2023-03-27T01:18:43.115Z,99.78
2023-03-27T01:19:58.028Z,100.00
2023-03-27T01:21:21.042Z,100.00
2023-03-27T01:22:07.329Z,100.00
2023-03-27T01:23:58.858Z,100.00
2023-03-27T01:25:01.175Z,100.00
2023-03-27T01:26:36.229Z,100.00
2023-03-27T01:27:20.174Z,100.00
2023-03-27T01:28:19.006Z,100.00
2023-03-27T01:29:29.137Z,100.00
2023-03-27T01:30:25.048Z,100.00
2023-03-27T01:31:52.117Z,100.00
2023-03-27T01:33:14.013Z,100.00
2023-03-27T01:35:01.058Z,100.00
2023-03-27T01:36:09.999Z,100.00
2023-03-27T01:37:36.081Z,100.00
2023-03-27T01:39:14.091Z,100.00
2023-03-27T01:40:32.018Z,100.00
2023-03-27T01:41:43.026Z,100.00
2023-03-27T01:42:46.032Z,100.00
2023-03-27T01:43:45.002Z,100.00
2023-03-27T01:45:15.987Z,100.00
2023-03-27T01:46:26.031Z,100.00
2023-03-27T01:47:29.033Z,100.00
2023-03-27T01:48:41.063Z,100.00
2023-03-27T01:49:27.081Z,100.00
2023-03-27T01:50:31.982Z,100.00
2023-03-27T01:51:29.096Z,100.00
2023-03-27T01:52:15.010Z,100.00
2023-03-27T01:53:06.479Z,100.00
2023-03-27T01:53:56.016Z,100.00
2023-03-27T01:54:45.168Z,100.00
2023-03-27T01:55:30.975Z,100.00
2023-03-27T01:56:53.733Z,100.00
2023-03-27T01:57:55.983Z,100.00
2023-03-27T01:58:42.184Z,100.00
2023-03-27T01:59:24.008Z,100.00
2023-03-27T02:00:19.496Z,100.00
2023-03-27T02:01:04.141Z,100.00
2023-03-27T02:01:47.146Z,100.00
2023-03-27T02:02:35.006Z,100.00
2023-03-27T02:03:43.760Z,99.80
2023-03-27T02:04:28.001Z,99.35
2023-03-27T02:05:36.156Z,99.57
2023-03-27T02:06:22.984Z,99.59
2023-03-27T02:07:11.927Z,99.27
2023-03-27T02:08:00.989Z,98.94
2023-03-27T02:08:49.085Z,98.66
2023-03-27T02:09:36.996Z,98.38
2023-03-27T02:10:21.689Z,98.99
2023-03-27T02:11:04.981Z,99.50
2023-03-27T02:12:02.089Z,98.74
2023-03-27T02:12:53.995Z,98.46
2023-03-27T02:14:00.985Z,99.27
2023-03-27T02:15:25.537Z,98.74
2023-03-27T02:16:22.995Z,98.74
2023-03-27T02:17:21.027Z,99.05
2023-03-27T02:18:18.018Z,98.09
2023-03-27T02:19:16.968Z,98.56
2023-03-27T02:20:22.970Z,98.00
2023-03-27T02:21:04.042Z,97.75
2023-03-27T02:21:45.950Z,97.47
2023-03-27T02:22:38.131Z,98.25
2023-03-27T02:23:22.824Z,98.25
2023-03-27T02:24:03.958Z,98.61
2023-03-27T02:24:44.127Z,98.58
2023-03-27T02:25:31.994Z,99.03
2023-03-27T02:26:12.058Z,98.76
2023-03-27T02:26:53.991Z,99.08
2023-03-27T02:27:55.064Z,99.21
2023-03-27T02:28:51.944Z,99.53
2023-03-27T02:29:49.059Z,98.85
2023-03-27T02:30:46.989Z,98.50
2023-03-27T02:32:30.217Z,98.03
2023-03-27T02:33:34.944Z,98.01
2023-03-27T02:34:39.265Z,97.88
2023-03-27T02:35:41.972Z,97.72
2023-03-27T02:36:34.964Z,98.39
2023-03-27T02:37:42.076Z,99.54
2023-03-27T02:38:51.961Z,98.74
2023-03-27T02:39:55.184Z,98.81
2023-03-27T02:41:08.961Z,98.72
2023-03-27T02:42:06.034Z,98.80
2023-03-27T02:43:23.919Z,99.11
2023-03-27T02:44:22.953Z,99.79
2023-03-27T02:46:06.978Z,99.60
2023-03-27T02:47:11.963Z,99.16
2023-03-27T02:48:17.020Z,98.88
2023-03-27T02:49:17.928Z,98.53
2023-03-27T02:50:21.948Z,97.98
2023-03-27T02:51:53.939Z,97.51
2023-03-27T02:52:51.967Z,97.22
2023-03-27T02:53:33.055Z,97.07
2023-03-27T02:54:23.948Z,97.12
2023-03-27T02:55:11.003Z,96.75
2023-03-27T02:55:56.919Z,96.97
2023-03-27T02:56:40.288Z,96.81
2023-03-27T02:57:25.322Z,96.33
2023-03-27T02:58:13.960Z,96.06
2023-03-27T02:59:26.076Z,96.39
2023-03-27T03:00:34.950Z,96.34
2023-03-27T03:01:10.024Z,95.71
2023-03-27T03:01:57.965Z,95.82
2023-03-27T03:02:38.066Z,95.17
2023-03-27T03:03:35.039Z,95.04
2023-03-27T03:04:17.059Z,95.05
2023-03-27T03:05:18.943Z,94.68
2023-03-27T03:05:54.021Z,93.94
2023-03-27T03:06:41.904Z,94.21
2023-03-27T03:07:18.575Z,94.19
2023-03-27T03:08:05.921Z,94.49
2023-03-27T03:08:47.966Z,94.43
2023-03-27T03:09:43.956Z,93.02
2023-03-27T03:10:39.936Z,93.37
2023-03-27T03:11:35.926Z,93.86
2023-03-27T03:12:29.928Z,93.80
2023-03-27T03:13:23.946Z,93.71
2023-03-27T03:14:11.956Z,93.63
2023-03-27T03:14:47.994Z,93.24
2023-03-27T03:15:34.921Z,94.11
2023-03-27T03:16:09.929Z,94.19
2023-03-27T03:16:56.988Z,94.32
2023-03-27T03:17:31.187Z,94.32
2023-03-27T03:18:19.917Z,94.34
2023-03-27T03:18:54.035Z,94.41
2023-03-27T03:19:34.928Z,94.25
2023-03-27T03:20:17.031Z,94.52
2023-03-27T03:21:00.941Z,94.20
2023-03-27T03:21:41.020Z,93.68
2023-03-27T03:22:21.901Z,93.90
2023-03-27T03:23:03.051Z,93.83
2023-03-27T03:23:42.918Z,93.28
2023-03-27T03:24:47.954Z,93.72
2023-03-27T03:25:41.949Z,93.71
2023-03-27T03:26:36.944Z,93.45
2023-03-27T03:27:30.892Z,93.49
2023-03-27T03:28:24.931Z,93.58
2023-03-27T03:29:18.989Z,93.43
2023-03-27T03:30:07.034Z,93.27
2023-03-27T03:30:42.941Z,93.31
2023-03-27T03:31:30.930Z,92.96
2023-03-27T03:32:06.293Z,93.10
2023-03-27T03:32:53.938Z,92.89
2023-03-27T03:33:29.984Z,93.34
2023-03-27T03:34:24.882Z,93.50
2023-03-27T03:35:01.548Z,94.03
2023-03-27T03:35:42.919Z,94.91
2023-03-27T03:36:23.990Z,94.71
2023-03-27T03:37:03.901Z,94.34
2023-03-27T03:37:50.971Z,94.54
2023-03-27T03:38:38.108Z,94.34
2023-03-27T03:39:19.092Z,94.06
2023-03-27T03:39:59.893Z,94.13
2023-03-27T03:40:39.968Z,94.09
2023-03-27T03:41:19.892Z,93.71
2023-03-27T03:42:00.975Z,93.82
2023-03-27T03:42:40.903Z,94.20
2023-03-27T03:43:21.470Z,94.05
2023-03-27T03:44:02.896Z,94.29
2023-03-27T03:44:42.994Z,94.11
2023-03-27T03:45:24.881Z,93.85
2023-03-27T03:46:05.052Z,93.80
2023-03-27T03:46:45.948Z,93.93
2023-03-27T03:47:25.986Z,93.72
2023-03-27T03:48:06.895Z,92.99
2023-03-27T03:48:46.976Z,93.15
2023-03-27T03:49:27.899Z,91.74
2023-03-27T03:50:08.101Z,92.35
2023-03-27T03:50:49.928Z,91.84
2023-03-27T03:51:31.550Z,91.79
2023-03-27T03:52:12.883Z,91.85
2023-03-27T03:52:53.064Z,91.96
2023-03-27T03:53:32.886Z,91.36
2023-03-27T03:54:12.966Z,91.30
2023-03-27T03:54:53.850Z,91.44
2023-03-27T03:55:33.972Z,91.05
2023-03-27T03:56:14.886Z,91.03
2023-03-27T03:56:54.990Z,91.10
2023-03-27T03:57:35.896Z,91.02
2023-03-27T03:58:16.445Z,90.76
2023-03-27T03:58:57.861Z,90.82
2023-03-27T03:59:38.283Z,91.00
2023-03-27T04:00:18.912Z,91.29
2023-03-27T04:01:02.809Z,91.40
2023-03-27T04:01:42.904Z,91.65
2023-03-27T04:02:29.190Z,91.55
2023-03-27T04:03:10.977Z,92.06
2023-03-27T04:03:51.184Z,92.44
2023-03-27T04:04:31.887Z,92.53
2023-03-27T04:05:13.080Z,91.67
2023-03-27T04:05:52.863Z,92.67
2023-03-27T04:06:37.708Z,92.49
2023-03-27T04:07:17.860Z,93.15
2023-03-27T04:07:59.378Z,93.45
2023-03-27T04:08:41.885Z,93.12
2023-03-27T04:09:22.359Z,93.17
2023-03-27T04:10:02.883Z,93.24
2023-03-27T04:10:44.952Z,93.90
2023-03-27T04:11:25.877Z,93.86
2023-03-27T04:12:06.126Z,93.97
2023-03-27T04:12:46.860Z,94.34
2023-03-27T04:13:26.978Z,93.59
2023-03-27T04:14:07.857Z,94.08
2023-03-27T04:14:47.953Z,94.35
2023-03-27T04:15:27.848Z,94.05
2023-03-27T04:16:08.162Z,94.58
2023-03-27T04:16:48.855Z,93.73
2023-03-27T04:17:30.170Z,93.65
2023-03-27T04:18:10.962Z,93.11
2023-03-27T04:18:54.286Z,92.86
2023-03-27T04:19:34.908Z,93.29
2023-03-27T04:20:17.194Z,93.07
2023-03-27T04:20:57.941Z,92.39
2023-03-27T04:21:37.993Z,92.38
2023-03-27T04:22:23.872Z,90.33
2023-03-27T04:23:04.010Z,90.58
2023-03-27T04:23:44.878Z,91.17
2023-03-27T04:24:25.007Z,91.09
2023-03-27T04:25:05.856Z,91.92
2023-03-27T04:25:48.659Z,92.30
2023-03-27T04:26:33.834Z,92.49
2023-03-27T04:27:13.944Z,91.78
2023-03-27T04:27:57.828Z,91.93
2023-03-27T04:28:37.936Z,92.37
2023-03-27T04:29:18.881Z,91.88
2023-03-27T04:29:58.965Z,92.26
2023-03-27T04:30:38.886Z,92.32
2023-03-27T04:31:19.072Z,91.82
2023-03-27T04:31:58.856Z,91.62
2023-03-27T04:32:39.272Z,92.46
2023-03-27T04:33:24.853Z,92.09
2023-03-27T04:34:04.954Z,92.19
2023-03-27T04:34:47.212Z,91.73
2023-03-27T04:35:28.052Z,92.17
2023-03-27T04:36:09.024Z,91.92
2023-03-27T04:36:50.285Z,91.66
2023-03-27T04:37:30.883Z,91.80
2023-03-27T04:38:11.033Z,91.81
2023-03-27T04:38:51.853Z,91.96
2023-03-27T04:39:39.559Z,92.65
2023-03-27T04:40:24.894Z,92.77
2023-03-27T04:41:04.906Z,92.65
2023-03-27T04:41:45.887Z,92.83
2023-03-27T04:42:25.950Z,93.39
2023-03-27T04:43:05.864Z,93.84
2023-03-27T04:43:46.179Z,93.61
2023-03-27T04:44:26.851Z,94.40
2023-03-27T04:45:08.114Z,95.07
2023-03-27T04:45:53.871Z,95.18
2023-03-27T04:46:34.074Z,95.14
2023-03-27T04:47:14.912Z,95.57
2023-03-27T04:47:56.003Z,95.73
2023-03-27T04:48:35.826Z,95.84
2023-03-27T04:49:20.192Z,96.02
2023-03-27T04:50:00.870Z,97.11
2023-03-27T04:50:40.935Z,97.01
2023-03-27T04:51:21.833Z,96.79
2023-03-27T04:52:02.979Z,96.65
2023-03-27T04:52:43.869Z,96.76
2023-03-27T04:53:30.129Z,97.25
2023-03-27T04:54:10.820Z,97.53
2023-03-27T04:55:04.913Z,97.69
2023-03-27T04:55:59.917Z,97.71
2023-03-27T04:56:53.884Z,98.67
2023-03-27T04:57:48.975Z,98.08
2023-03-27T04:58:42.851Z,98.18
2023-03-27T04:59:37.848Z,99.39
2023-03-27T05:00:32.839Z,99.59
2023-03-27T05:01:26.887Z,100.00
2023-03-27T05:02:21.142Z,100.00
2023-03-27T05:03:08.959Z,100.00
2023-03-27T05:03:42.975Z,99.90
2023-03-27T05:04:32.880Z,100.00
2023-03-27T05:05:06.900Z,100.00
2023-03-27T05:05:55.820Z,100.00
2023-03-27T05:06:32.894Z,100.00
2023-03-27T05:07:19.866Z,99.67
2023-03-27T05:07:54.997Z,100.00
2023-03-27T05:08:34.863Z,100.00
2023-03-27T05:09:15.564Z,99.78
2023-03-27T05:09:55.880Z,100.00
2023-03-27T05:10:35.982Z,99.83
2023-03-27T05:11:17.804Z,99.74
2023-03-27T05:11:58.917Z,99.19
2023-03-27T05:12:39.805Z,99.54
2023-03-27T05:13:20.910Z,99.71
2023-03-27T05:14:00.881Z,99.48
2023-03-27T05:14:41.044Z,99.26
2023-03-27T05:15:23.826Z,99.76
2023-03-27T05:16:04.889Z,100.00
2023-03-27T05:16:44.933Z,100.00
2023-03-27T05:17:27.051Z,100.00
2023-03-27T05:18:07.856Z,100.00
2023-03-27T05:18:47.950Z,100.00
2023-03-27T05:19:28.842Z,100.00
2023-03-27T05:20:11.803Z,100.00
2023-03-27T05:20:56.139Z,100.00
2023-03-27T05:21:37.267Z,100.00
2023-03-27T05:22:17.826Z,100.00
2023-03-27T05:23:02.065Z,100.00
2023-03-27T05:23:42.804Z,100.00
2023-03-27T05:24:22.900Z,100.00
2023-03-27T05:25:02.812Z,100.00
2023-03-27T05:25:59.436Z,100.00
2023-03-27T05:26:40.784Z,100.00
2023-03-27T05:27:21.145Z,100.00
2023-03-27T05:28:01.815Z,100.00
2023-03-27T05:28:42.151Z,100.00
2023-03-27T05:29:22.821Z,100.00
2023-03-27T05:30:10.870Z,100.00
2023-03-27T05:31:06.059Z,100.00
2023-03-27T05:32:01.526Z,100.00
2023-03-27T05:33:05.840Z,100.00
2023-03-27T05:33:59.872Z,100.00
2023-03-27T05:34:56.833Z,100.00
2023-03-27T05:35:37.840Z,100.00
2023-03-27T05:36:18.937Z,100.00
2023-03-27T05:36:59.761Z,100.00
2023-03-27T05:37:39.925Z,100.00
2023-03-27T05:38:20.812Z,100.00
2023-03-27T05:39:01.994Z,100.00
2023-03-27T05:39:42.789Z,100.00
2023-03-27T05:40:27.668Z,100.00
2023-03-27T05:41:08.805Z,100.00
2023-03-27T05:41:48.951Z,100.00
2023-03-27T05:42:29.814Z,100.00
2023-03-27T05:43:10.902Z,100.00
2023-03-27T05:43:51.836Z,100.00
2023-03-27T05:44:31.941Z,100.00
2023-03-27T05:45:12.829Z,100.00
2023-03-27T05:45:53.037Z,100.00
2023-03-27T05:46:32.874Z,100.00
2023-03-27T05:47:14.423Z,100.00
2023-03-27T05:48:03.830Z,100.00
2023-03-27T05:48:43.964Z,100.00
2023-03-27T05:49:23.875Z,100.00
2023-03-27T05:50:03.965Z,100.00
2023-03-27T05:50:43.807Z,100.00
2023-03-27T05:51:23.951Z,100.00
2023-03-27T05:52:04.828Z,100.00
2023-03-27T05:52:44.963Z,100.00
2023-03-27T05:53:28.169Z,99.65
2023-03-27T05:54:08.935Z,99.31
2023-03-27T05:54:49.788Z,99.71
2023-03-27T05:55:30.188Z,99.53
2023-03-27T05:56:10.788Z,98.75
2023-03-27T05:56:51.222Z,98.32
2023-03-27T05:57:30.871Z,97.56
2023-03-27T05:58:13.325Z,97.22
2023-03-27T05:58:53.789Z,96.99
2023-03-27T05:59:34.799Z,96.89
2023-03-27T06:00:20.786Z,97.14
2023-03-27T06:01:01.383Z,96.43
2023-03-27T06:01:42.791Z,96.29
2023-03-27T06:02:23.346Z,96.75
2023-03-27T06:03:06.983Z,96.35
2023-03-27T06:03:49.170Z,96.29
2023-03-27T06:04:29.802Z,96.44
2023-03-27T06:05:16.026Z,96.21
2023-03-27T06:05:56.735Z,97.29
2023-03-27T06:06:36.892Z,97.31
2023-03-27T06:07:18.778Z,97.12
2023-03-27T06:07:58.999Z,96.34
2023-03-27T06:08:39.772Z,96.16
2023-03-27T06:09:19.816Z,96.34
2023-03-27T06:10:00.935Z,96.76
2023-03-27T06:10:40.902Z,95.79
2023-03-27T06:11:21.843Z,95.39
2023-03-27T06:12:01.852Z,95.32
2023-03-27T06:12:43.808Z,96.81
2023-03-27T06:13:24.271Z,95.55
2023-03-27T06:14:05.959Z,95.21
2023-03-27T06:14:46.641Z,95.40
2023-03-27T06:15:27.760Z,95.55
2023-03-27T06:16:08.968Z,94.73
2023-03-27T06:16:49.759Z,95.68
2023-03-27T06:17:29.907Z,94.47
2023-03-27T06:18:10.783Z,95.22
2023-03-27T06:18:51.157Z,95.71
2023-03-27T06:19:31.787Z,95.39
2023-03-27T06:20:15.593Z,95.34
2023-03-27T06:20:56.842Z,94.72
2023-03-27T06:21:37.203Z,94.57
2023-03-27T06:22:18.834Z,94.10
2023-03-27T06:23:06.440Z,94.02
2023-03-27T06:23:47.756Z,94.21
2023-03-27T06:24:27.872Z,94.19
2023-03-27T06:25:07.772Z,94.64
2023-03-27T06:25:47.875Z,95.39
2023-03-27T06:26:28.782Z,95.38
2023-03-27T06:27:10.837Z,95.38
2023-03-27T06:27:53.742Z,96.44
2023-03-27T06:28:35.883Z,96.07
2023-03-27T06:29:16.792Z,95.76
2023-03-27T06:29:56.888Z,94.82
2023-03-27T06:30:59.838Z,94.70
2023-03-27T06:31:53.822Z,94.38
2023-03-27T06:32:47.774Z,93.31
2023-03-27T06:33:41.738Z,93.19
2023-03-27T06:34:35.733Z,92.85
2023-03-27T06:35:32.783Z,92.41
2023-03-27T06:36:19.786Z,91.81
2023-03-27T06:36:54.075Z,92.56
2023-03-27T06:37:43.746Z,91.59
2023-03-27T06:38:19.053Z,90.99
2023-03-27T06:39:05.744Z,91.07
2023-03-27T06:39:39.964Z,91.09
2023-03-27T06:40:30.750Z,91.96
2023-03-27T06:41:05.846Z,91.56
2023-03-27T06:41:45.951Z,91.63
2023-03-27T06:42:26.057Z,91.99
2023-03-27T06:43:14.723Z,92.18
2023-03-27T06:43:54.861Z,91.84
2023-03-27T06:44:35.818Z,91.56
2023-03-27T06:45:16.968Z,91.18
2023-03-27T06:45:57.979Z,90.27
2023-03-27T06:46:45.442Z,90.69
2023-03-27T06:47:25.801Z,90.09
2023-03-27T06:48:16.978Z,89.88
2023-03-27T06:49:01.757Z,89.79
2023-03-27T06:49:47.572Z,89.98
2023-03-27T06:50:29.703Z,90.55
2023-03-27T06:51:09.794Z,90.60
2023-03-27T06:51:50.783Z,89.55
2023-03-27T06:52:37.800Z,89.75
2023-03-27T06:53:37.356Z,90.46
2023-03-27T06:54:31.737Z,90.82
2023-03-27T06:55:25.720Z,90.52
2023-03-27T06:56:20.701Z,91.42
2023-03-27T06:57:14.732Z,91.00
2023-03-27T06:58:04.732Z,90.92
2023-03-27T06:58:38.945Z,91.38
2023-03-27T06:59:25.731Z,91.07
2023-03-27T07:00:02.323Z,91.50
2023-03-27T07:00:49.995Z,91.18
2023-03-27T07:01:24.058Z,90.78
2023-03-27T07:02:10.736Z,91.33
2023-03-27T07:02:44.838Z,89.46
2023-03-27T07:03:27.696Z,90.72
2023-03-27T07:04:07.797Z,91.08
2023-03-27T07:04:57.832Z,90.60
2023-03-27T07:05:48.840Z,89.88
2023-03-27T07:06:28.693Z,90.32
2023-03-27T07:07:02.480Z,90.37
2023-03-27T07:07:49.682Z,90.36
2023-03-27T07:08:25.584Z,90.66
2023-03-27T07:09:05.731Z,90.75
2023-03-27T07:09:40.214Z,90.71
2023-03-27T07:10:15.434Z,91.05
2023-03-27T07:11:10.936Z,90.41
2023-03-27T07:11:45.801Z,90.27
2023-03-27T07:12:20.688Z,90.22
2023-03-27T07:13:01.700Z,90.09
2023-03-27T07:13:35.891Z,89.62
2023-03-27T07:14:15.753Z,90.48
2023-03-27T07:14:55.814Z,90.63
2023-03-27T07:15:35.681Z,90.34
2023-03-27T07:16:17.866Z,90.29
2023-03-27T07:16:58.674Z,89.84
2023-03-27T07:17:48.912Z,90.26
2023-03-27T07:18:29.739Z,89.85
2023-03-27T07:19:09.918Z,89.23
2023-03-27T07:19:49.743Z,88.92
2023-03-27T07:20:31.828Z,89.52
2023-03-27T07:21:13.711Z,89.25
2023-03-27T07:21:53.808Z,90.22
2023-03-27T07:22:33.678Z,89.62
2023-03-27T07:23:14.767Z,89.94
2023-03-27T07:23:54.713Z,90.10
2023-03-27T07:24:35.929Z,90.26
2023-03-27T07:25:18.712Z,90.56
2023-03-27T07:26:02.881Z,89.66
2023-03-27T07:26:42.695Z,90.84
2023-03-27T07:27:22.742Z,90.99
2023-03-27T07:28:06.673Z,91.03
2023-03-27T07:28:47.928Z,91.01
2023-03-27T07:29:27.659Z,90.38
2023-03-27T07:30:08.824Z,90.46
2023-03-27T07:30:49.701Z,90.53
2023-03-27T07:31:51.030Z,90.12
2023-03-27T07:32:37.236Z,89.79
2023-03-27T07:33:18.892Z,91.03
2023-03-27T07:33:58.721Z,91.00
2023-03-27T07:34:38.754Z,90.52
2023-03-27T07:35:19.769Z,90.93
2023-03-27T07:36:06.688Z,90.47
2023-03-27T07:36:40.357Z,89.99
2023-03-27T07:37:29.659Z,90.95
2023-03-27T07:38:03.657Z,88.95
2023-03-27T07:38:50.688Z,88.73
2023-03-27T07:39:25.707Z,88.48
2023-03-27T07:40:13.703Z,88.47
2023-03-27T07:40:47.461Z,89.28
2023-03-27T07:41:29.671Z,89.58
2023-03-27T07:42:03.766Z,89.78
2023-03-27T07:42:37.479Z,89.10
2023-03-27T07:43:18.696Z,89.32
2023-03-27T07:43:52.774Z,88.86
2023-03-27T07:44:26.441Z,88.21
2023-03-27T07:45:09.682Z,87.97
2023-03-27T07:45:43.844Z,88.02
2023-03-27T07:46:17.647Z,88.14
2023-03-27T07:46:59.705Z,88.33
2023-03-27T07:47:33.736Z,87.78
2023-03-27T07:48:11.182Z,88.04
2023-03-27T07:48:52.656Z,87.73
2023-03-27T07:49:38.570Z,88.00
2023-03-27T07:50:17.210Z,87.86
2023-03-27T07:50:58.267Z,87.96
2023-03-27T07:51:38.692Z,87.81
2023-03-27T07:52:19.718Z,89.01
2023-03-27T07:53:00.712Z,88.52
2023-03-27T07:53:41.800Z,88.44
2023-03-27T07:54:21.754Z,88.46
2023-03-27T07:55:03.655Z,88.33
2023-03-27T07:55:45.114Z,88.78
2023-03-27T07:56:27.650Z,89.03
2023-03-27T07:57:10.285Z,89.14
2023-03-27T07:58:01.859Z,89.24
2023-03-27T07:58:43.777Z,89.39
2023-03-27T07:59:26.698Z,88.73
2023-03-27T08:00:13.765Z,89.03
2023-03-27T08:00:57.629Z,89.08
2023-03-27T08:01:37.726Z,88.67
2023-03-27T08:03:26.873Z,87.47
2023-03-27T08:04:00.656Z,88.02
2023-03-27T08:04:48.878Z,87.98
2023-03-27T08:05:22.880Z,87.64
2023-03-27T08:06:13.652Z,87.93
2023-03-27T08:06:47.382Z,87.93
2023-03-27T08:07:34.645Z,86.89
2023-03-27T08:08:09.749Z,87.05
2023-03-27T08:08:50.680Z,86.92
2023-03-27T08:09:24.708Z,87.14
2023-03-27T08:09:58.577Z,87.39
2023-03-27T08:10:38.639Z,87.54
2023-03-27T08:11:23.191Z,87.33
2023-03-27T08:12:06.810Z,87.34
2023-03-27T08:12:47.672Z,87.25
2023-03-27T08:13:21.778Z,87.19
2023-03-27T08:14:01.681Z,87.68
2023-03-27T08:14:41.775Z,87.67
2023-03-27T08:15:22.616Z,87.43
2023-03-27T08:16:30.335Z,86.81
2023-03-27T08:17:16.138Z,86.52
2023-03-27T08:17:57.047Z,86.66
2023-03-27T08:18:37.631Z,86.85
2023-03-27T08:19:25.619Z,85.64
2023-03-27T08:20:02.103Z,85.91
2023-03-27T08:20:48.620Z,86.08
2023-03-27T08:21:23.262Z,85.20
2023-03-27T08:22:10.658Z,85.09
2023-03-27T08:22:44.498Z,84.66
2023-03-27T08:23:34.623Z,84.32
2023-03-27T08:24:09.045Z,84.98
2023-03-27T08:24:48.644Z,83.87
2023-03-27T08:25:22.977Z,84.42
2023-03-27T08:26:00.610Z,83.77
2023-03-27T08:26:41.626Z,84.00
2023-03-27T08:27:15.711Z,83.75
2023-03-27T08:27:49.724Z,83.12
2023-03-27T08:28:29.629Z,83.08
2023-03-27T08:29:03.823Z,82.47
2023-03-27T08:29:37.390Z,82.24
2023-03-27T08:30:21.828Z,82.19
2023-03-27T08:30:56.101Z,82.33
2023-03-27T08:31:36.465Z,81.77
2023-03-27T08:32:17.611Z,82.74
2023-03-27T08:32:51.744Z,82.60
2023-03-27T08:33:29.272Z,82.61
2023-03-27T08:34:10.614Z,82.80
2023-03-27T08:34:44.811Z,82.62
2023-03-27T08:35:18.656Z,82.69
2023-03-27T08:35:58.751Z,81.79
2023-03-27T08:36:34.438Z,81.42
2023-03-27T08:37:08.820Z,81.91
2023-03-27T08:37:50.624Z,80.61
2023-03-27T08:38:27.006Z,81.08
2023-03-27T08:39:02.567Z,81.60
2023-03-27T08:39:43.631Z,81.27
2023-03-27T08:40:28.081Z,81.69
2023-03-27T08:41:10.615Z,81.53
2023-03-27T08:42:01.668Z,81.06
2023-03-27T08:42:45.599Z,81.22
2023-03-27T08:43:29.787Z,80.74
2023-03-27T08:44:12.593Z,80.24
2023-03-27T08:44:54.923Z,80.30
2023-03-27T08:45:56.769Z,80.28
2023-03-27T08:46:54.642Z,80.43
2023-03-27T08:47:42.652Z,80.54
2023-03-27T08:48:22.121Z,78.71
2023-03-27T08:49:12.619Z,79.63
2023-03-27T08:49:58.683Z,78.17
2023-03-27T08:50:46.903Z,78.62
2023-03-27T08:51:53.645Z,78.75
2023-03-27T08:52:45.631Z,78.85
2023-03-27T08:53:30.810Z,78.48
2023-03-27T08:54:38.579Z,78.01
2023-03-27T08:55:24.597Z,77.57
2023-03-27T08:56:11.625Z,76.69
2023-03-27T08:56:45.861Z,77.39
2023-03-27T08:57:29.612Z,76.76
2023-03-27T08:58:03.669Z,77.58
2023-03-27T08:58:38.082Z,77.99
2023-03-27T08:59:25.617Z,77.87
2023-03-27T09:00:09.896Z,77.08
2023-03-27T09:01:28.591Z,77.35
2023-03-27T09:02:40.729Z,76.45
2023-03-27T09:04:05.660Z,76.99
2023-03-27T09:05:30.592Z,77.67
2023-03-27T09:07:06.596Z,75.67
2023-03-27T09:08:13.606Z,76.53
2023-03-27T09:09:20.580Z,76.67
2023-03-27T09:10:37.647Z,76.47
2023-03-27T09:11:53.882Z,76.18
2023-03-27T09:13:28.576Z,76.53
2023-03-27T09:14:56.604Z,76.81
2023-03-27T09:16:15.613Z,76.53
2023-03-27T09:17:10.584Z,75.90
2023-03-27T09:18:34.572Z,76.00
2023-03-27T09:19:36.587Z,76.89
2023-03-27T09:20:54.542Z,76.52
2023-03-27T09:22:13.542Z,77.04
2023-03-27T09:23:23.547Z,76.66
2023-03-27T09:24:06.580Z,76.56
2023-03-27T09:24:50.704Z,76.16
2023-03-27T09:25:39.597Z,75.12
2023-03-27T09:26:30.645Z,75.80
2023-03-27T09:27:33.532Z,75.33
2023-03-27T09:28:32.732Z,75.90
2023-03-27T09:29:29.614Z,76.64
2023-03-27T09:30:18.845Z,76.75
2023-03-27T09:30:59.575Z,76.35
2023-03-27T09:31:51.035Z,77.02
2023-03-27T09:32:33.991Z,75.72
2023-03-27T09:33:17.985Z,75.65
2023-03-27T09:33:59.652Z,75.55
2023-03-27T09:34:46.588Z,75.54
2023-03-27T09:35:41.860Z,75.06
2023-03-27T09:36:36.538Z,74.30
2023-03-27T09:37:30.553Z,74.22
2023-03-27T09:38:42.769Z,73.40
2023-03-27T09:39:42.558Z,74.06
2023-03-27T09:40:30.626Z,73.96
2023-03-27T09:41:19.685Z,73.76
2023-03-27T09:42:50.570Z,74.84
2023-03-27T09:44:15.681Z,74.33
2023-03-27T09:45:02.705Z,75.13
2023-03-27T09:45:51.551Z,75.26
2023-03-27T09:46:48.528Z,75.50
2023-03-27T09:48:04.624Z,75.61
2023-03-27T09:49:05.574Z,74.03
2023-03-27T09:50:04.548Z,73.62
2023-03-27T09:51:00.527Z,74.98
2023-03-27T09:51:59.555Z,75.43
2023-03-27T09:52:54.569Z,74.68
2023-03-27T09:53:49.550Z,73.89
2023-03-27T09:54:43.525Z,74.59
2023-03-27T09:55:41.534Z,73.07
2023-03-27T09:56:22.524Z,72.94
2023-03-27T09:57:27.147Z,73.26
2023-03-27T09:58:30.517Z,73.09
2023-03-27T09:59:33.075Z,73.57
2023-03-27T10:00:37.585Z,72.56
2023-03-27T10:01:41.550Z,72.69
2023-03-27T10:02:43.579Z,73.29
2023-03-27T10:03:37.568Z,72.60
2023-03-27T10:04:36.533Z,72.06